sensor_id;sensor_type;location;lat;lon;timestamp;P1;durP1;ratioP1;P2;durP2;ratioP2
14740;SDS011;7462;53.530;9.414;2023-02-01T00:00:54;25.17;;;4.03;;
14740;SDS011;7462;53.530;9.414;2023-02-01T00:03:22;24.43;;;4.50;;
14740;SDS011;7462;53.530;9.414;2023-02-01T00:05:57;22.30;;;4.20;;
14740;SDS011;7462;53.530;9.414;2023-02-01T00:08:27;25.43;;;4.30;;
14740;SDS011;7462;53.530;9.414;2023-02-01T00:10:59;25.30;;;4.87;;
14740;SDS011;7462;53.530;9.414;2023-02-01T00:13:30;25.97;;;4.83;;
14740;SDS011;7462;53.530;9.414;2023-02-01T00:16:02;21.23;;;4.17;;
14740;SDS011;7462;53.530;9.414;2023-02-01T00:18:31;22.37;;;5.00;;
14740;SDS011;7462;53.530;9.414;2023-02-01T00:21:00;25.57;;;6.23;;
14740;SDS011;7462;53.530;9.414;2023-02-01T00:23:30;25.43;;;4.20;;
14740;SDS011;7462;53.530;9.414;2023-02-01T00:26:00;34.50;;;5.03;;
14740;SDS011;7462;53.530;9.414;2023-02-01T00:28:28;20.07;;;4.37;;
14740;SDS011;7462;53.530;9.414;2023-02-01T00:30:57;27.27;;;4.47;;
14740;SDS011;7462;53.530;9.414;2023-02-01T00:33:26;30.27;;;5.03;;
14740;SDS011;7462;53.530;9.414;2023-02-01T00:35:56;24.23;;;4.90;;
14740;SDS011;7462;53.530;9.414;2023-02-01T00:38:25;27.63;;;4.60;;
14740;SDS011;7462;53.530;9.414;2023-02-01T00:41:01;25.90;;;4.80;;
14740;SDS011;7462;53.530;9.414;2023-02-01T00:43:30;25.47;;;4.40;;
14740;SDS011;7462;53.530;9.414;2023-02-01T00:45:58;21.47;;;4.40;;
14740;SDS011;7462;53.530;9.414;2023-02-01T00:48:26;30.87;;;4.80;;
14740;SDS011;7462;53.530;9.414;2023-02-01T00:50:54;23.27;;;4.53;;
14740;SDS011;7462;53.530;9.414;2023-02-01T00:53:26;29.13;;;5.03;;
14740;SDS011;7462;53.530;9.414;2023-02-01T00:55:55;27.30;;;4.87;;
14740;SDS011;7462;53.530;9.414;2023-02-01T00:58:24;29.47;;;5.17;;
14740;SDS011;7462;53.530;9.414;2023-02-01T01:01:00;28.73;;;5.07;;
14740;SDS011;7462;53.530;9.414;2023-02-01T01:03:30;30.70;;;4.50;;
14740;SDS011;7462;53.530;9.414;2023-02-01T01:06:00;22.00;;;4.50;;
14740;SDS011;7462;53.530;9.414;2023-02-01T01:08:29;33.23;;;5.10;;
14740;SDS011;7462;53.530;9.414;2023-02-01T01:10:59;29.53;;;5.10;;
14740;SDS011;7462;53.530;9.414;2023-02-01T01:13:31;29.93;;;4.67;;
14740;SDS011;7462;53.530;9.414;2023-02-01T01:16:00;26.83;;;4.97;;
14740;SDS011;7462;53.530;9.414;2023-02-01T01:18:30;25.53;;;4.80;;
14740;SDS011;7462;53.530;9.414;2023-02-01T01:20:59;26.97;;;5.27;;
14740;SDS011;7462;53.530;9.414;2023-02-01T01:23:27;32.00;;;5.23;;
14740;SDS011;7462;53.530;9.414;2023-02-01T01:25:55;28.53;;;5.93;;
14740;SDS011;7462;53.530;9.414;2023-02-01T01:28:25;33.57;;;5.87;;
14740;SDS011;7462;53.530;9.414;2023-02-01T01:30:53;27.30;;;4.90;;
14740;SDS011;7462;53.530;9.414;2023-02-01T01:33:21;29.43;;;4.57;;
14740;SDS011;7462;53.530;9.414;2023-02-01T01:35:49;29.87;;;5.43;;
14740;SDS011;7462;53.530;9.414;2023-02-01T01:38:17;34.43;;;6.13;;
14740;SDS011;7462;53.530;9.414;2023-02-01T01:40:46;32.43;;;5.63;;
14740;SDS011;7462;53.530;9.414;2023-02-01T01:43:16;36.00;;;5.47;;
14740;SDS011;7462;53.530;9.414;2023-02-01T01:45:51;27.60;;;5.20;;
14740;SDS011;7462;53.530;9.414;2023-02-01T01:48:20;27.67;;;5.23;;
14740;SDS011;7462;53.530;9.414;2023-02-01T01:50:54;31.87;;;4.60;;
14740;SDS011;7462;53.530;9.414;2023-02-01T01:53:26;27.53;;;5.03;;
14740;SDS011;7462;53.530;9.414;2023-02-01T01:55:58;29.67;;;5.50;;
14740;SDS011;7462;53.530;9.414;2023-02-01T01:58:26;30.23;;;5.10;;
14740;SDS011;7462;53.530;9.414;2023-02-01T02:00:57;29.10;;;5.10;;
14740;SDS011;7462;53.530;9.414;2023-02-01T02:03:27;29.40;;;5.30;;
14740;SDS011;7462;53.530;9.414;2023-02-01T02:06:00;30.63;;;5.87;;
14740;SDS011;7462;53.530;9.414;2023-02-01T02:08:30;31.17;;;5.43;;
14740;SDS011;7462;53.530;9.414;2023-02-01T02:10:58;26.23;;;4.33;;
14740;SDS011;7462;53.530;9.414;2023-02-01T02:13:27;30.70;;;5.50;;
14740;SDS011;7462;53.530;9.414;2023-02-01T02:16:08;29.17;;;4.90;;
14740;SDS011;7462;53.530;9.414;2023-02-01T02:18:55;27.97;;;5.07;;
14740;SDS011;7462;53.530;9.414;2023-02-01T02:21:35;38.07;;;5.87;;
14740;SDS011;7462;53.530;9.414;2023-02-01T02:24:33;27.90;;;5.27;;
14740;SDS011;7462;53.530;9.414;2023-02-01T02:27:18;28.77;;;4.60;;
14740;SDS011;7462;53.530;9.414;2023-02-01T02:33:28;29.37;;;6.03;;
14740;SDS011;7462;53.530;9.414;2023-02-01T02:36:19;34.80;;;5.00;;
14740;SDS011;7462;53.530;9.414;2023-02-01T02:39:03;23.93;;;4.87;;
14740;SDS011;7462;53.530;9.414;2023-02-01T02:41:37;29.60;;;4.73;;
14740;SDS011;7462;53.530;9.414;2023-02-01T02:44:31;30.27;;;5.33;;
14740;SDS011;7462;53.530;9.414;2023-02-01T02:47:22;26.53;;;4.83;;
14740;SDS011;7462;53.530;9.414;2023-02-01T02:49:58;33.17;;;4.90;;
14740;SDS011;7462;53.530;9.414;2023-02-01T02:52:54;27.43;;;5.03;;
14740;SDS011;7462;53.530;9.414;2023-02-01T02:55:44;27.63;;;4.47;;
14740;SDS011;7462;53.530;9.414;2023-02-01T02:58:14;28.80;;;4.37;;
14740;SDS011;7462;53.530;9.414;2023-02-01T03:01:00;16.57;;;3.50;;
14740;SDS011;7462;53.530;9.414;2023-02-01T03:03:48;28.83;;;4.50;;
14740;SDS011;7462;53.530;9.414;2023-02-01T03:06:38;20.50;;;4.33;;
14740;SDS011;7462;53.530;9.414;2023-02-01T03:09:08;23.13;;;4.57;;
14740;SDS011;7462;53.530;9.414;2023-02-01T03:11:43;18.00;;;3.53;;
14740;SDS011;7462;53.530;9.414;2023-02-01T03:14:34;21.27;;;3.90;;
14740;SDS011;7462;53.530;9.414;2023-02-01T03:17:07;21.83;;;3.97;;
14740;SDS011;7462;53.530;9.414;2023-02-01T03:19:42;15.80;;;4.07;;
14740;SDS011;7462;53.530;9.414;2023-02-01T03:22:18;23.63;;;3.73;;
14740;SDS011;7462;53.530;9.414;2023-02-01T03:24:51;15.50;;;3.43;;
14740;SDS011;7462;53.530;9.414;2023-02-01T03:27:23;13.10;;;3.10;;
14740;SDS011;7462;53.530;9.414;2023-02-01T03:29:56;19.70;;;4.23;;
14740;SDS011;7462;53.530;9.414;2023-02-01T03:32:29;12.63;;;2.57;;
14740;SDS011;7462;53.530;9.414;2023-02-01T03:35:17;16.83;;;2.97;;
14740;SDS011;7462;53.530;9.414;2023-02-01T03:37:49;15.67;;;3.17;;
14740;SDS011;7462;53.530;9.414;2023-02-01T03:40:19;15.37;;;2.83;;
14740;SDS011;7462;53.530;9.414;2023-02-01T03:42:49;16.30;;;3.07;;
14740;SDS011;7462;53.530;9.414;2023-02-01T03:45:22;16.23;;;2.57;;
14740;SDS011;7462;53.530;9.414;2023-02-01T03:47:55;17.70;;;3.27;;
14740;SDS011;7462;53.530;9.414;2023-02-01T03:50:26;13.73;;;2.37;;
14740;SDS011;7462;53.530;9.414;2023-02-01T03:53:00;16.03;;;3.10;;
14740;SDS011;7462;53.530;9.414;2023-02-01T03:55:31;16.03;;;3.60;;
14740;SDS011;7462;53.530;9.414;2023-02-01T03:58:01;13.43;;;2.60;;
14740;SDS011;7462;53.530;9.414;2023-02-01T04:00:34;14.87;;;2.60;;
14740;SDS011;7462;53.530;9.414;2023-02-01T04:03:02;15.10;;;2.77;;
14740;SDS011;7462;53.530;9.414;2023-02-01T04:05:32;16.10;;;2.87;;
14740;SDS011;7462;53.530;9.414;2023-02-01T04:08:05;17.77;;;2.90;;
14740;SDS011;7462;53.530;9.414;2023-02-01T04:10:33;16.97;;;3.47;;
14740;SDS011;7462;53.530;9.414;2023-02-01T04:13:01;16.30;;;2.97;;
14740;SDS011;7462;53.530;9.414;2023-02-01T04:15:29;12.47;;;3.40;;
14740;SDS011;7462;53.530;9.414;2023-02-01T04:17:57;17.93;;;2.70;;
14740;SDS011;7462;53.530;9.414;2023-02-01T04:20:25;14.23;;;2.80;;
14740;SDS011;7462;53.530;9.414;2023-02-01T04:22:53;12.30;;;2.23;;
14740;SDS011;7462;53.530;9.414;2023-02-01T04:25:23;16.50;;;2.30;;
14740;SDS011;7462;53.530;9.414;2023-02-01T04:27:51;13.40;;;2.43;;
14740;SDS011;7462;53.530;9.414;2023-02-01T04:30:19;13.27;;;2.50;;
14740;SDS011;7462;53.530;9.414;2023-02-01T04:32:47;10.10;;;2.17;;
14740;SDS011;7462;53.530;9.414;2023-02-01T04:35:15;14.10;;;2.57;;
14740;SDS011;7462;53.530;9.414;2023-02-01T04:37:44;14.27;;;1.90;;
14740;SDS011;7462;53.530;9.414;2023-02-01T04:40:12;12.20;;;2.07;;
14740;SDS011;7462;53.530;9.414;2023-02-01T04:42:42;11.37;;;1.93;;
14740;SDS011;7462;53.530;9.414;2023-02-01T04:45:10;14.53;;;2.60;;
14740;SDS011;7462;53.530;9.414;2023-02-01T04:47:39;9.10;;;1.90;;
14740;SDS011;7462;53.530;9.414;2023-02-01T04:50:07;7.90;;;1.83;;
14740;SDS011;7462;53.530;9.414;2023-02-01T04:52:37;6.60;;;1.57;;
14740;SDS011;7462;53.530;9.414;2023-02-01T04:55:05;4.17;;;0.87;;
14740;SDS011;7462;53.530;9.414;2023-02-01T04:57:33;3.03;;;0.90;;
14740;SDS011;7462;53.530;9.414;2023-02-01T05:00:03;4.30;;;0.93;;
14740;SDS011;7462;53.530;9.414;2023-02-01T05:02:32;3.07;;;0.67;;
14740;SDS011;7462;53.530;9.414;2023-02-01T05:05:01;2.20;;;0.63;;
14740;SDS011;7462;53.530;9.414;2023-02-01T05:07:29;3.17;;;0.70;;
14740;SDS011;7462;53.530;9.414;2023-02-01T05:09:57;1.97;;;0.70;;
14740;SDS011;7462;53.530;9.414;2023-02-01T05:12:25;1.23;;;0.53;;
14740;SDS011;7462;53.530;9.414;2023-02-01T05:15:12;1.37;;;0.57;;
14740;SDS011;7462;53.530;9.414;2023-02-01T05:17:40;3.17;;;0.73;;
14740;SDS011;7462;53.530;9.414;2023-02-01T05:20:09;1.13;;;0.53;;
14740;SDS011;7462;53.530;9.414;2023-02-01T05:22:37;1.90;;;0.50;;
14740;SDS011;7462;53.530;9.414;2023-02-01T05:25:06;3.17;;;0.83;;
14740;SDS011;7462;53.530;9.414;2023-02-01T05:27:34;5.27;;;1.10;;
14740;SDS011;7462;53.530;9.414;2023-02-01T05:30:03;1.53;;;0.70;;
14740;SDS011;7462;53.530;9.414;2023-02-01T05:32:33;3.30;;;0.90;;
14740;SDS011;7462;53.530;9.414;2023-02-01T05:35:01;4.67;;;1.00;;
14740;SDS011;7462;53.530;9.414;2023-02-01T05:37:30;2.77;;;1.00;;
14740;SDS011;7462;53.530;9.414;2023-02-01T05:39:58;5.43;;;1.33;;
14740;SDS011;7462;53.530;9.414;2023-02-01T05:42:26;4.03;;;1.40;;
14740;SDS011;7462;53.530;9.414;2023-02-01T05:44:54;3.60;;;1.20;;
14740;SDS011;7462;53.530;9.414;2023-02-01T05:47:22;5.20;;;1.20;;
14740;SDS011;7462;53.530;9.414;2023-02-01T05:49:52;4.97;;;0.90;;
14740;SDS011;7462;53.530;9.414;2023-02-01T05:52:20;7.07;;;1.20;;
14740;SDS011;7462;53.530;9.414;2023-02-01T05:54:48;7.00;;;1.30;;
14740;SDS011;7462;53.530;9.414;2023-02-01T05:57:16;3.87;;;1.17;;
14740;SDS011;7462;53.530;9.414;2023-02-01T05:59:44;3.77;;;1.00;;
14740;SDS011;7462;53.530;9.414;2023-02-01T06:02:12;7.60;;;1.13;;
14740;SDS011;7462;53.530;9.414;2023-02-01T06:04:40;2.63;;;1.10;;
14740;SDS011;7462;53.530;9.414;2023-02-01T06:07:09;7.13;;;1.20;;
14740;SDS011;7462;53.530;9.414;2023-02-01T06:09:40;5.10;;;1.17;;
14740;SDS011;7462;53.530;9.414;2023-02-01T06:12:08;10.37;;;1.60;;
14740;SDS011;7462;53.530;9.414;2023-02-01T06:14:36;9.83;;;1.93;;
14740;SDS011;7462;53.530;9.414;2023-02-01T06:17:04;7.10;;;1.70;;
14740;SDS011;7462;53.530;9.414;2023-02-01T06:19:33;11.13;;;1.97;;
14740;SDS011;7462;53.530;9.414;2023-02-01T06:22:01;8.30;;;1.87;;
14740;SDS011;7462;53.530;9.414;2023-02-01T06:24:33;14.67;;;2.00;;
14740;SDS011;7462;53.530;9.414;2023-02-01T06:27:01;19.23;;;2.90;;
14740;SDS011;7462;53.530;9.414;2023-02-01T06:29:29;12.53;;;2.60;;
14740;SDS011;7462;53.530;9.414;2023-02-01T06:31:57;13.23;;;2.73;;
14740;SDS011;7462;53.530;9.414;2023-02-01T06:34:26;16.93;;;3.07;;
14740;SDS011;7462;53.530;9.414;2023-02-01T06:36:54;13.57;;;2.53;;
14740;SDS011;7462;53.530;9.414;2023-02-01T06:39:22;15.50;;;3.37;;
14740;SDS011;7462;53.530;9.414;2023-02-01T06:41:52;11.87;;;2.77;;
14740;SDS011;7462;53.530;9.414;2023-02-01T06:44:20;25.67;;;4.20;;
14740;SDS011;7462;53.530;9.414;2023-02-01T06:46:48;27.10;;;3.53;;
14740;SDS011;7462;53.530;9.414;2023-02-01T06:49:16;18.90;;;3.87;;
14740;SDS011;7462;53.530;9.414;2023-02-01T06:51:44;22.87;;;3.83;;
14740;SDS011;7462;53.530;9.414;2023-02-01T06:54:13;20.43;;;3.63;;
14740;SDS011;7462;53.530;9.414;2023-02-01T06:56:41;29.83;;;4.90;;
14740;SDS011;7462;53.530;9.414;2023-02-01T06:59:10;16.53;;;3.60;;
14740;SDS011;7462;53.530;9.414;2023-02-01T07:01:42;21.73;;;3.83;;
14740;SDS011;7462;53.530;9.414;2023-02-01T07:04:10;27.40;;;4.07;;
14740;SDS011;7462;53.530;9.414;2023-02-01T07:06:39;26.50;;;4.00;;
14740;SDS011;7462;53.530;9.414;2023-02-01T07:09:07;20.73;;;3.63;;
14740;SDS011;7462;53.530;9.414;2023-02-01T07:11:36;26.07;;;4.57;;
14740;SDS011;7462;53.530;9.414;2023-02-01T07:14:07;25.97;;;4.80;;
14740;SDS011;7462;53.530;9.414;2023-02-01T07:16:36;31.37;;;5.40;;
14740;SDS011;7462;53.530;9.414;2023-02-01T07:19:04;21.50;;;3.73;;
14740;SDS011;7462;53.530;9.414;2023-02-01T07:21:33;28.07;;;4.27;;
14740;SDS011;7462;53.530;9.414;2023-02-01T07:24:01;30.77;;;4.33;;
14740;SDS011;7462;53.530;9.414;2023-02-01T07:26:29;20.97;;;4.27;;
14740;SDS011;7462;53.530;9.414;2023-02-01T07:28:57;32.10;;;5.43;;
14740;SDS011;7462;53.530;9.414;2023-02-01T07:31:26;22.20;;;3.60;;
14740;SDS011;7462;53.530;9.414;2023-02-01T07:33:56;21.23;;;3.83;;
14740;SDS011;7462;53.530;9.414;2023-02-01T07:36:24;28.57;;;3.90;;
14740;SDS011;7462;53.530;9.414;2023-02-01T07:38:53;21.37;;;3.97;;
14740;SDS011;7462;53.530;9.414;2023-02-01T07:41:22;22.30;;;4.00;;
14740;SDS011;7462;53.530;9.414;2023-02-01T07:43:51;29.23;;;4.70;;
14740;SDS011;7462;53.530;9.414;2023-02-01T07:46:20;23.87;;;4.10;;
14740;SDS011;7462;53.530;9.414;2023-02-01T07:48:48;27.50;;;4.47;;
14740;SDS011;7462;53.530;9.414;2023-02-01T07:51:18;23.23;;;4.73;;
14740;SDS011;7462;53.530;9.414;2023-02-01T07:53:46;25.13;;;4.47;;
14740;SDS011;7462;53.530;9.414;2023-02-01T07:56:14;31.97;;;4.63;;
14740;SDS011;7462;53.530;9.414;2023-02-01T07:58:46;24.83;;;4.50;;
14740;SDS011;7462;53.530;9.414;2023-02-01T08:01:15;26.67;;;4.60;;
14740;SDS011;7462;53.530;9.414;2023-02-01T08:03:46;25.13;;;4.33;;
14740;SDS011;7462;53.530;9.414;2023-02-01T08:06:14;27.00;;;4.17;;
14740;SDS011;7462;53.530;9.414;2023-02-01T08:08:44;31.20;;;4.67;;
14740;SDS011;7462;53.530;9.414;2023-02-01T08:11:13;24.27;;;4.80;;
14740;SDS011;7462;53.530;9.414;2023-02-01T08:13:41;21.70;;;4.13;;
14740;SDS011;7462;53.530;9.414;2023-02-01T08:16:11;29.30;;;4.33;;
14740;SDS011;7462;53.530;9.414;2023-02-01T08:18:41;21.67;;;4.17;;
14740;SDS011;7462;53.530;9.414;2023-02-01T08:21:10;23.53;;;3.50;;
14740;SDS011;7462;53.530;9.414;2023-02-01T08:23:39;23.43;;;4.20;;
14740;SDS011;7462;53.530;9.414;2023-02-01T08:26:10;24.37;;;4.43;;
14740;SDS011;7462;53.530;9.414;2023-02-01T08:28:41;19.47;;;3.67;;
14740;SDS011;7462;53.530;9.414;2023-02-01T08:31:11;18.40;;;3.60;;
14740;SDS011;7462;53.530;9.414;2023-02-01T08:33:41;20.10;;;3.83;;
14740;SDS011;7462;53.530;9.414;2023-02-01T08:36:10;18.33;;;3.90;;
14740;SDS011;7462;53.530;9.414;2023-02-01T08:38:39;20.43;;;3.97;;
14740;SDS011;7462;53.530;9.414;2023-02-01T08:41:07;27.73;;;3.93;;
14740;SDS011;7462;53.530;9.414;2023-02-01T08:43:38;25.77;;;4.17;;
14740;SDS011;7462;53.530;9.414;2023-02-01T08:46:07;23.50;;;3.67;;
14740;SDS011;7462;53.530;9.414;2023-02-01T08:48:36;25.17;;;4.30;;
14740;SDS011;7462;53.530;9.414;2023-02-01T08:51:06;22.07;;;4.67;;
14740;SDS011;7462;53.530;9.414;2023-02-01T08:53:36;23.30;;;4.57;;
14740;SDS011;7462;53.530;9.414;2023-02-01T08:56:06;23.83;;;3.90;;
14740;SDS011;7462;53.530;9.414;2023-02-01T08:58:36;23.17;;;3.63;;
14740;SDS011;7462;53.530;9.414;2023-02-01T09:01:04;22.80;;;3.77;;
14740;SDS011;7462;53.530;9.414;2023-02-01T09:03:33;20.33;;;3.40;;
14740;SDS011;7462;53.530;9.414;2023-02-01T09:06:02;18.93;;;3.50;;
14740;SDS011;7462;53.530;9.414;2023-02-01T09:08:31;26.37;;;4.17;;
14740;SDS011;7462;53.530;9.414;2023-02-01T09:11:00;24.10;;;4.10;;
14740;SDS011;7462;53.530;9.414;2023-02-01T09:13:29;25.70;;;4.17;;
14740;SDS011;7462;53.530;9.414;2023-02-01T09:15:58;20.87;;;4.27;;
14740;SDS011;7462;53.530;9.414;2023-02-01T09:18:27;21.60;;;4.50;;
14740;SDS011;7462;53.530;9.414;2023-02-01T09:20:55;22.70;;;4.20;;
14740;SDS011;7462;53.530;9.414;2023-02-01T09:23:23;27.73;;;4.20;;
14740;SDS011;7462;53.530;9.414;2023-02-01T09:25:51;24.67;;;3.63;;
14740;SDS011;7462;53.530;9.414;2023-02-01T09:28:19;15.73;;;3.40;;
14740;SDS011;7462;53.530;9.414;2023-02-01T09:30:47;21.07;;;4.77;;
14740;SDS011;7462;53.530;9.414;2023-02-01T09:33:16;17.50;;;3.87;;
14740;SDS011;7462;53.530;9.414;2023-02-01T09:35:44;18.33;;;3.67;;
14740;SDS011;7462;53.530;9.414;2023-02-01T09:38:12;19.07;;;3.37;;
14740;SDS011;7462;53.530;9.414;2023-02-01T09:40:41;24.03;;;3.73;;
14740;SDS011;7462;53.530;9.414;2023-02-01T09:43:17;21.53;;;3.67;;
14740;SDS011;7462;53.530;9.414;2023-02-01T09:45:53;19.43;;;3.93;;
14740;SDS011;7462;53.530;9.414;2023-02-01T09:48:29;19.73;;;3.83;;
14740;SDS011;7462;53.530;9.414;2023-02-01T09:51:00;26.13;;;3.73;;
14740;SDS011;7462;53.530;9.414;2023-02-01T09:53:33;20.63;;;3.40;;
14740;SDS011;7462;53.530;9.414;2023-02-01T09:56:04;20.30;;;3.27;;
14740;SDS011;7462;53.530;9.414;2023-02-01T09:58:35;19.73;;;3.83;;
14740;SDS011;7462;53.530;9.414;2023-02-01T10:01:10;23.63;;;3.83;;
14740;SDS011;7462;53.530;9.414;2023-02-01T10:03:49;22.83;;;3.80;;
14740;SDS011;7462;53.530;9.414;2023-02-01T10:06:25;24.70;;;3.67;;
14740;SDS011;7462;53.530;9.414;2023-02-01T10:09:09;12.70;;;3.20;;
14740;SDS011;7462;53.530;9.414;2023-02-01T10:12:04;19.63;;;3.97;;
14740;SDS011;7462;53.530;9.414;2023-02-01T10:15:02;24.37;;;3.90;;
14740;SDS011;7462;53.530;9.414;2023-02-01T10:17:43;15.57;;;3.07;;
14740;SDS011;7462;53.530;9.414;2023-02-01T10:20:23;18.60;;;3.73;;
14740;SDS011;7462;53.530;9.414;2023-02-01T10:23:00;22.37;;;3.87;;
14740;SDS011;7462;53.530;9.414;2023-02-01T10:25:59;14.57;;;3.80;;
14740;SDS011;7462;53.530;9.414;2023-02-01T10:28:37;17.27;;;3.03;;
14740;SDS011;7462;53.530;9.414;2023-02-01T10:31:06;18.00;;;3.37;;
14740;SDS011;7462;53.530;9.414;2023-02-01T10:33:38;19.27;;;3.73;;
14740;SDS011;7462;53.530;9.414;2023-02-01T10:36:13;24.93;;;3.60;;
14740;SDS011;7462;53.530;9.414;2023-02-01T10:38:44;22.73;;;3.90;;
14740;SDS011;7462;53.530;9.414;2023-02-01T10:41:13;17.60;;;3.70;;
14740;SDS011;7462;53.530;9.414;2023-02-01T10:43:44;18.80;;;3.70;;
14740;SDS011;7462;53.530;9.414;2023-02-01T10:46:16;19.60;;;3.33;;
14740;SDS011;7462;53.530;9.414;2023-02-01T10:48:44;18.87;;;3.50;;
14740;SDS011;7462;53.530;9.414;2023-02-01T10:51:15;21.87;;;3.63;;
14740;SDS011;7462;53.530;9.414;2023-02-01T10:53:48;19.03;;;4.03;;
14740;SDS011;7462;53.530;9.414;2023-02-01T10:56:21;14.37;;;2.77;;
14740;SDS011;7462;53.530;9.414;2023-02-01T10:58:50;19.23;;;3.90;;
14740;SDS011;7462;53.530;9.414;2023-02-01T11:01:19;18.57;;;4.20;;
14740;SDS011;7462;53.530;9.414;2023-02-01T11:03:52;17.83;;;3.70;;
14740;SDS011;7462;53.530;9.414;2023-02-01T11:06:24;22.23;;;3.93;;
14740;SDS011;7462;53.530;9.414;2023-02-01T11:08:55;20.57;;;3.33;;
14740;SDS011;7462;53.530;9.414;2023-02-01T11:11:25;21.30;;;4.50;;
14740;SDS011;7462;53.530;9.414;2023-02-01T11:13:54;19.20;;;3.60;;
14740;SDS011;7462;53.530;9.414;2023-02-01T11:16:29;21.37;;;4.43;;
14740;SDS011;7462;53.530;9.414;2023-02-01T11:19:00;17.20;;;3.40;;
14740;SDS011;7462;53.530;9.414;2023-02-01T11:21:30;18.97;;;3.83;;
14740;SDS011;7462;53.530;9.414;2023-02-01T11:24:00;19.80;;;3.57;;
14740;SDS011;7462;53.530;9.414;2023-02-01T11:26:30;19.87;;;3.73;;
14740;SDS011;7462;53.530;9.414;2023-02-01T11:29:01;22.77;;;4.17;;
14740;SDS011;7462;53.530;9.414;2023-02-01T11:31:32;19.70;;;3.40;;
14740;SDS011;7462;53.530;9.414;2023-02-01T11:34:05;20.37;;;3.67;;
14740;SDS011;7462;53.530;9.414;2023-02-01T11:36:36;17.27;;;3.67;;
14740;SDS011;7462;53.530;9.414;2023-02-01T11:39:19;18.67;;;3.50;;
14740;SDS011;7462;53.530;9.414;2023-02-01T11:41:56;19.03;;;3.63;;
14740;SDS011;7462;53.530;9.414;2023-02-01T11:44:30;17.30;;;3.60;;
14740;SDS011;7462;53.530;9.414;2023-02-01T11:47:19;17.97;;;2.60;;
14740;SDS011;7462;53.530;9.414;2023-02-01T11:49:49;10.80;;;2.20;;
14740;SDS011;7462;53.530;9.414;2023-02-01T11:52:24;12.97;;;2.90;;
14740;SDS011;7462;53.530;9.414;2023-02-01T11:55:14;9.97;;;2.43;;
14740;SDS011;7462;53.530;9.414;2023-02-01T11:57:57;9.57;;;2.53;;
14740;SDS011;7462;53.530;9.414;2023-02-01T12:00:43;9.20;;;2.37;;
14740;SDS011;7462;53.530;9.414;2023-02-01T12:06:43;5.67;;;1.47;;
14740;SDS011;7462;53.530;9.414;2023-02-01T12:09:28;5.63;;;1.30;;
14740;SDS011;7462;53.530;9.414;2023-02-01T12:12:08;6.40;;;1.30;;
14740;SDS011;7462;53.530;9.414;2023-02-01T12:14:53;4.13;;;1.00;;
14740;SDS011;7462;53.530;9.414;2023-02-01T12:17:55;2.90;;;0.80;;
14740;SDS011;7462;53.530;9.414;2023-02-01T12:23:37;2.00;;;0.60;;
14740;SDS011;7462;53.530;9.414;2023-02-01T12:26:33;1.80;;;0.60;;
14740;SDS011;7462;53.530;9.414;2023-02-01T12:29:20;1.90;;;0.60;;
14740;SDS011;7462;53.530;9.414;2023-02-01T12:32:19;1.83;;;0.50;;
14740;SDS011;7462;53.530;9.414;2023-02-01T12:35:06;1.77;;;0.60;;
14740;SDS011;7462;53.530;9.414;2023-02-01T12:38:01;4.17;;;0.93;;
14740;SDS011;7462;53.530;9.414;2023-02-01T12:40:45;1.73;;;0.50;;
14740;SDS011;7462;53.530;9.414;2023-02-01T12:43:28;0.80;;;0.53;;
14740;SDS011;7462;53.530;9.414;2023-02-01T12:46:07;1.43;;;0.70;;
14740;SDS011;7462;53.530;9.414;2023-02-01T12:48:39;1.57;;;0.50;;
14740;SDS011;7462;53.530;9.414;2023-02-01T12:51:17;1.53;;;0.60;;
14740;SDS011;7462;53.530;9.414;2023-02-01T12:53:49;3.17;;;0.70;;
14740;SDS011;7462;53.530;9.414;2023-02-01T12:56:21;1.40;;;0.47;;
14740;SDS011;7462;53.530;9.414;2023-02-01T12:58:56;2.00;;;0.60;;
14740;SDS011;7462;53.530;9.414;2023-02-01T13:01:28;2.10;;;0.60;;
14740;SDS011;7462;53.530;9.414;2023-02-01T13:04:01;1.13;;;0.60;;
14740;SDS011;7462;53.530;9.414;2023-02-01T13:06:37;1.00;;;0.40;;
14740;SDS011;7462;53.530;9.414;2023-02-01T13:09:10;0.93;;;0.53;;
14740;SDS011;7462;53.530;9.414;2023-02-01T13:11:47;1.57;;;0.50;;
14740;SDS011;7462;53.530;9.414;2023-02-01T13:14:22;1.93;;;0.80;;
14740;SDS011;7462;53.530;9.414;2023-02-01T13:16:58;3.70;;;0.93;;
14740;SDS011;7462;53.530;9.414;2023-02-01T13:19:30;2.50;;;0.70;;
14740;SDS011;7462;53.530;9.414;2023-02-01T13:22:05;1.67;;;0.70;;
14740;SDS011;7462;53.530;9.414;2023-02-01T13:24:39;0.93;;;0.67;;
14740;SDS011;7462;53.530;9.414;2023-02-01T13:27:11;5.20;;;0.93;;
14740;SDS011;7462;53.530;9.414;2023-02-01T13:29:46;2.33;;;0.70;;
14740;SDS011;7462;53.530;9.414;2023-02-01T13:32:26;1.07;;;0.50;;
14740;SDS011;7462;53.530;9.414;2023-02-01T13:35:44;2.90;;;0.80;;
14740;SDS011;7462;53.530;9.414;2023-02-01T13:41:51;5.47;;;0.87;;
14740;SDS011;7462;53.530;9.414;2023-02-01T13:44:23;5.17;;;0.93;;
14740;SDS011;7462;53.530;9.414;2023-02-01T13:46:57;4.93;;;0.77;;
14740;SDS011;7462;53.530;9.414;2023-02-01T13:49:28;8.23;;;1.20;;
14740;SDS011;7462;53.530;9.414;2023-02-01T13:51:59;8.17;;;0.90;;
14740;SDS011;7462;53.530;9.414;2023-02-01T13:54:29;9.40;;;1.40;;
14740;SDS011;7462;53.530;9.414;2023-02-01T13:56:58;10.13;;;1.57;;
14740;SDS011;7462;53.530;9.414;2023-02-01T13:59:47;7.57;;;1.23;;
14740;SDS011;7462;53.530;9.414;2023-02-01T14:08:42;6.13;;;1.40;;
14740;SDS011;7462;53.530;9.414;2023-02-01T14:11:36;10.47;;;1.50;;
14740;SDS011;7462;53.530;9.414;2023-02-01T14:14:07;7.90;;;1.40;;
14740;SDS011;7462;53.530;9.414;2023-02-01T14:23:10;4.20;;;0.83;;
14740;SDS011;7462;53.530;9.414;2023-02-01T14:25:41;6.10;;;1.37;;
14740;SDS011;7462;53.530;9.414;2023-02-01T14:28:12;4.97;;;1.33;;
14740;SDS011;7462;53.530;9.414;2023-02-01T14:30:50;7.73;;;1.90;;
14740;SDS011;7462;53.530;9.414;2023-02-01T14:33:19;9.93;;;1.57;;
14740;SDS011;7462;53.530;9.414;2023-02-01T14:36:03;7.70;;;1.40;;
14740;SDS011;7462;53.530;9.414;2023-02-01T14:38:35;4.47;;;1.23;;
14740;SDS011;7462;53.530;9.414;2023-02-01T14:41:18;6.17;;;1.40;;
14740;SDS011;7462;53.530;9.414;2023-02-01T14:52:47;6.57;;;1.40;;
14740;SDS011;7462;53.530;9.414;2023-02-01T14:55:37;4.93;;;1.27;;
14740;SDS011;7462;53.530;9.414;2023-02-01T14:58:14;8.13;;;1.80;;
14740;SDS011;7462;53.530;9.414;2023-02-01T15:00:47;5.67;;;1.20;;
14740;SDS011;7462;53.530;9.414;2023-02-01T15:03:24;10.50;;;1.50;;
14740;SDS011;7462;53.530;9.414;2023-02-01T15:06:01;7.13;;;1.60;;
14740;SDS011;7462;53.530;9.414;2023-02-01T15:08:32;9.87;;;1.67;;
14740;SDS011;7462;53.530;9.414;2023-02-01T15:11:05;7.47;;;1.80;;
14740;SDS011;7462;53.530;9.414;2023-02-01T15:13:38;14.93;;;2.47;;
14740;SDS011;7462;53.530;9.414;2023-02-01T15:16:09;15.77;;;2.13;;
14740;SDS011;7462;53.530;9.414;2023-02-01T15:18:39;12.10;;;2.60;;
14740;SDS011;7462;53.530;9.414;2023-02-01T15:21:14;14.30;;;2.57;;
14740;SDS011;7462;53.530;9.414;2023-02-01T15:24:09;12.33;;;2.13;;
14740;SDS011;7462;53.530;9.414;2023-02-01T15:26:39;16.93;;;2.47;;
14740;SDS011;7462;53.530;9.414;2023-02-01T15:29:11;17.57;;;2.93;;
14740;SDS011;7462;53.530;9.414;2023-02-01T15:31:41;17.77;;;2.77;;
14740;SDS011;7462;53.530;9.414;2023-02-01T15:34:11;15.00;;;2.53;;
14740;SDS011;7462;53.530;9.414;2023-02-01T15:36:40;23.23;;;3.13;;
14740;SDS011;7462;53.530;9.414;2023-02-01T15:39:27;14.73;;;3.20;;
14740;SDS011;7462;53.530;9.414;2023-02-01T15:41:59;19.03;;;3.20;;
14740;SDS011;7462;53.530;9.414;2023-02-01T15:44:37;21.90;;;3.73;;
14740;SDS011;7462;53.530;9.414;2023-02-01T15:47:10;21.17;;;3.63;;
14740;SDS011;7462;53.530;9.414;2023-02-01T15:49:43;19.33;;;3.53;;
14740;SDS011;7462;53.530;9.414;2023-02-01T15:52:18;20.43;;;3.40;;
14740;SDS011;7462;53.530;9.414;2023-02-01T15:54:51;21.23;;;3.87;;
14740;SDS011;7462;53.530;9.414;2023-02-01T15:57:23;24.70;;;3.50;;
14740;SDS011;7462;53.530;9.414;2023-02-01T15:59:57;26.83;;;4.63;;